sensor_id;sensor_type;location;lat;lon;timestamp;temperature;humidity
28247;DHT22;34504;53.178;22.058;2022-08-14T00:02:25;22.30;78.20
28247;DHT22;34504;53.178;22.058;2022-08-14T00:04:58;22.30;78.30
28247;DHT22;34504;53.178;22.058;2022-08-14T00:07:26;22.30;78.40
28247;DHT22;34504;53.178;22.058;2022-08-14T00:09:54;22.30;78.50
28247;DHT22;34504;53.178;22.058;2022-08-14T00:12:47;22.20;78.40
28247;DHT22;34504;53.178;22.058;2022-08-14T00:15:31;22.20;78.50
28247;DHT22;34504;53.178;22.058;2022-08-14T00:18:13;22.20;78.50
28247;DHT22;34504;53.178;22.058;2022-08-14T00:21:01;22.20;78.60
28247;DHT22;34504;53.178;22.058;2022-08-14T00:23:32;22.10;78.50
28247;DHT22;34504;53.178;22.058;2022-08-14T00:26:00;22.10;78.60
28247;DHT22;34504;53.178;22.058;2022-08-14T00:28:35;22.10;78.70
28247;DHT22;34504;53.178;22.058;2022-08-14T00:31:05;22.10;78.90
28247;DHT22;34504;53.178;22.058;2022-08-14T00:33:36;22.10;78.80
28247;DHT22;34504;53.178;22.058;2022-08-14T00:36:21;22.00;78.90
28247;DHT22;34504;53.178;22.058;2022-08-14T00:39:12;22.00;78.80
28247;DHT22;34504;53.178;22.058;2022-08-14T00:41:45;22.00;79.10
28247;DHT22;34504;53.178;22.058;2022-08-14T00:44:15;21.90;79.20
28247;DHT22;34504;53.178;22.058;2022-08-14T00:46:59;21.90;79.30
28247;DHT22;34504;53.178;22.058;2022-08-14T00:49:29;21.80;79.40
28247;DHT22;34504;53.178;22.058;2022-08-14T00:52:13;21.70;79.60
28247;DHT22;34504;53.178;22.058;2022-08-14T00:54:47;21.70;80.10
28247;DHT22;34504;53.178;22.058;2022-08-14T00:57:28;21.60;80.10
28247;DHT22;34504;53.178;22.058;2022-08-14T00:59:58;21.50;80.30
28247;DHT22;34504;53.178;22.058;2022-08-14T01:02:28;21.50;80.40
28247;DHT22;34504;53.178;22.058;2022-08-14T01:04:59;21.50;80.60
28247;DHT22;34504;53.178;22.058;2022-08-14T01:07:34;21.50;80.80
28247;DHT22;34504;53.178;22.058;2022-08-14T01:10:17;21.40;81.00
28247;DHT22;34504;53.178;22.058;2022-08-14T01:12:46;21.40;81.20
28247;DHT22;34504;53.178;22.058;2022-08-14T01:15:15;21.40;81.20
28247;DHT22;34504;53.178;22.058;2022-08-14T01:17:48;21.30;81.20
28247;DHT22;34504;53.178;22.058;2022-08-14T01:20:35;21.30;81.50
28247;DHT22;34504;53.178;22.058;2022-08-14T01:23:23;21.20;81.50
28247;DHT22;34504;53.178;22.058;2022-08-14T01:26:09;21.20;81.70
28247;DHT22;34504;53.178;22.058;2022-08-14T01:28:38;21.10;82.00
28247;DHT22;34504;53.178;22.058;2022-08-14T01:31:28;21.10;82.60
28247;DHT22;34504;53.178;22.058;2022-08-14T01:34:05;21.10;82.10
28247;DHT22;34504;53.178;22.058;2022-08-14T01:36:53;21.10;82.30
28247;DHT22;34504;53.178;22.058;2022-08-14T01:39:22;21.00;83.10
28247;DHT22;34504;53.178;22.058;2022-08-14T01:41:50;21.00;82.50
28247;DHT22;34504;53.178;22.058;2022-08-14T01:44:28;21.00;82.60
28247;DHT22;34504;53.178;22.058;2022-08-14T01:47:06;21.00;82.70
28247;DHT22;34504;53.178;22.058;2022-08-14T01:49:50;21.00;83.00
28247;DHT22;34504;53.178;22.058;2022-08-14T01:52:32;20.90;82.90
28247;DHT22;34504;53.178;22.058;2022-08-14T01:55:25;20.90;83.10
28247;DHT22;34504;53.178;22.058;2022-08-14T01:58:00;20.90;83.20
28247;DHT22;34504;53.178;22.058;2022-08-14T02:00:52;20.90;83.20
28247;DHT22;34504;53.178;22.058;2022-08-14T02:03:26;20.90;83.30
28247;DHT22;34504;53.178;22.058;2022-08-14T02:05:58;20.90;83.40
28247;DHT22;34504;53.178;22.058;2022-08-14T02:08:47;20.90;83.40
28247;DHT22;34504;53.178;22.058;2022-08-14T02:11:23;20.90;83.50
28247;DHT22;34504;53.178;22.058;2022-08-14T02:13:57;20.90;83.60
28247;DHT22;34504;53.178;22.058;2022-08-14T02:16:40;20.80;83.70
28247;DHT22;34504;53.178;22.058;2022-08-14T02:19:12;20.80;83.80
28247;DHT22;34504;53.178;22.058;2022-08-14T02:21:45;20.80;83.90
28247;DHT22;34504;53.178;22.058;2022-08-14T02:24:18;20.80;84.00
28247;DHT22;34504;53.178;22.058;2022-08-14T02:27:07;20.70;84.10
28247;DHT22;34504;53.178;22.058;2022-08-14T02:29:59;20.70;84.60
28247;DHT22;34504;53.178;22.058;2022-08-14T02:32:31;20.70;84.30
28247;DHT22;34504;53.178;22.058;2022-08-14T02:35:05;20.70;84.40
28247;DHT22;34504;53.178;22.058;2022-08-14T02:37:38;20.70;84.50
28247;DHT22;34504;53.178;22.058;2022-08-14T02:40:19;20.70;84.60
28247;DHT22;34504;53.178;22.058;2022-08-14T02:43:01;20.60;84.80
28247;DHT22;34504;53.178;22.058;2022-08-14T02:45:32;20.60;84.80
28247;DHT22;34504;53.178;22.058;2022-08-14T02:48:13;20.60;85.10
28247;DHT22;34504;53.178;22.058;2022-08-14T02:51:06;20.60;85.30
28247;DHT22;34504;53.178;22.058;2022-08-14T02:53:38;20.50;85.40
28247;DHT22;34504;53.178;22.058;2022-08-14T02:56:11;20.50;85.60
28247;DHT22;34504;53.178;22.058;2022-08-14T02:59:02;20.50;85.90
28247;DHT22;34504;53.178;22.058;2022-08-14T03:01:33;20.50;85.80
28247;DHT22;34504;53.178;22.058;2022-08-14T03:04:17;20.50;86.00
28247;DHT22;34504;53.178;22.058;2022-08-14T03:06:48;20.50;86.20
28247;DHT22;34504;53.178;22.058;2022-08-14T03:09:36;20.50;86.20
28247;DHT22;34504;53.178;22.058;2022-08-14T03:12:26;20.40;86.20
28247;DHT22;34504;53.178;22.058;2022-08-14T03:15:01;20.40;86.40
28247;DHT22;34504;53.178;22.058;2022-08-14T03:17:42;20.40;86.50
28247;DHT22;34504;53.178;22.058;2022-08-14T03:20:28;20.40;86.70
28247;DHT22;34504;53.178;22.058;2022-08-14T03:22:57;20.40;86.90
28247;DHT22;34504;53.178;22.058;2022-08-14T03:25:32;20.40;86.90
28247;DHT22;34504;53.178;22.058;2022-08-14T03:28:05;20.40;87.10
28247;DHT22;34504;53.178;22.058;2022-08-14T03:30:35;20.40;87.10
28247;DHT22;34504;53.178;22.058;2022-08-14T03:33:09;20.30;87.80
28247;DHT22;34504;53.178;22.058;2022-08-14T03:35:41;20.40;87.30
28247;DHT22;34504;53.178;22.058;2022-08-14T03:38:31;20.40;87.50
28247;DHT22;34504;53.178;22.058;2022-08-14T03:41:22;20.30;87.60
28247;DHT22;34504;53.178;22.058;2022-08-14T03:43:58;20.40;87.60
28247;DHT22;34504;53.178;22.058;2022-08-14T03:46:47;20.40;87.70
28247;DHT22;34504;53.178;22.058;2022-08-14T03:49:23;20.40;87.70
28247;DHT22;34504;53.178;22.058;2022-08-14T03:51:57;20.40;87.80
28247;DHT22;34504;53.178;22.058;2022-08-14T03:54:28;20.40;88.10
28247;DHT22;34504;53.178;22.058;2022-08-14T03:56:56;20.40;88.00
28247;DHT22;34504;53.178;22.058;2022-08-14T03:59:32;20.40;88.10
28247;DHT22;34504;53.178;22.058;2022-08-14T04:02:02;20.40;88.20
28247;DHT22;34504;53.178;22.058;2022-08-14T04:04:53;20.40;88.50
28247;DHT22;34504;53.178;22.058;2022-08-14T04:07:21;20.40;88.50
28247;DHT22;34504;53.178;22.058;2022-08-14T04:09:49;20.40;89.10
28247;DHT22;34504;53.178;22.058;2022-08-14T04:12:19;20.40;88.40
28247;DHT22;34504;53.178;22.058;2022-08-14T04:14:53;20.50;88.50
28247;DHT22;34504;53.178;22.058;2022-08-14T04:17:22;20.50;88.50
28247;DHT22;34504;53.178;22.058;2022-08-14T04:19:56;20.50;88.70
28247;DHT22;34504;53.178;22.058;2022-08-14T04:22:24;20.50;88.90
28247;DHT22;34504;53.178;22.058;2022-08-14T04:24:52;20.50;88.90
28247;DHT22;34504;53.178;22.058;2022-08-14T04:27:20;20.40;88.90
28247;DHT22;34504;53.178;22.058;2022-08-14T04:29:50;20.50;89.00
28247;DHT22;34504;53.178;22.058;2022-08-14T04:32:19;20.50;89.20
28247;DHT22;34504;53.178;22.058;2022-08-14T04:35:09;20.50;89.30
28247;DHT22;34504;53.178;22.058;2022-08-14T04:37:47;20.50;89.40
28247;DHT22;34504;53.178;22.058;2022-08-14T04:40:55;20.50;89.40
28247;DHT22;34504;53.178;22.058;2022-08-14T04:43:42;20.50;89.50
28247;DHT22;34504;53.178;22.058;2022-08-14T04:46:18;20.50;89.70
28247;DHT22;34504;53.178;22.058;2022-08-14T04:49:06;20.50;89.80
28247;DHT22;34504;53.178;22.058;2022-08-14T04:51:38;20.60;89.80
28247;DHT22;34504;53.178;22.058;2022-08-14T04:54:25;20.60;89.90
28247;DHT22;34504;53.178;22.058;2022-08-14T04:56:54;20.60;89.80
28247;DHT22;34504;53.178;22.058;2022-08-14T04:59:24;20.60;90.00
28247;DHT22;34504;53.178;22.058;2022-08-14T05:01:53;20.60;89.90
28247;DHT22;34504;53.178;22.058;2022-08-14T05:04:24;20.70;89.90
28247;DHT22;34504;53.178;22.058;2022-08-14T05:06:52;20.70;90.40
28247;DHT22;34504;53.178;22.058;2022-08-14T05:09:24;20.70;89.90
28247;DHT22;34504;53.178;22.058;2022-08-14T05:11:57;20.70;90.20
28247;DHT22;34504;53.178;22.058;2022-08-14T05:14:45;20.80;89.60
28247;DHT22;34504;53.178;22.058;2022-08-14T05:17:25;20.90;89.40
28247;DHT22;34504;53.178;22.058;2022-08-14T05:20:12;21.00;89.30
28247;DHT22;34504;53.178;22.058;2022-08-14T05:23:03;21.00;89.10
28247;DHT22;34504;53.178;22.058;2022-08-14T05:25:31;21.20;89.10
28247;DHT22;34504;53.178;22.058;2022-08-14T05:28:07;21.30;88.90
28247;DHT22;34504;53.178;22.058;2022-08-14T05:31:02;21.40;88.40
28247;DHT22;34504;53.178;22.058;2022-08-14T05:33:35;21.50;88.30
28247;DHT22;34504;53.178;22.058;2022-08-14T05:36:08;21.60;88.10
28247;DHT22;34504;53.178;22.058;2022-08-14T05:38:46;21.80;88.10
28247;DHT22;34504;53.178;22.058;2022-08-14T05:41:16;21.80;87.90
28247;DHT22;34504;53.178;22.058;2022-08-14T05:43:46;22.00;87.70
28247;DHT22;34504;53.178;22.058;2022-08-14T05:46:17;22.10;87.60
28247;DHT22;34504;53.178;22.058;2022-08-14T05:48:49;22.20;87.30
28247;DHT22;34504;53.178;22.058;2022-08-14T05:51:19;22.40;86.90
28247;DHT22;34504;53.178;22.058;2022-08-14T05:53:51;22.60;86.90
28247;DHT22;34504;53.178;22.058;2022-08-14T05:56:39;22.70;86.00
28247;DHT22;34504;53.178;22.058;2022-08-14T05:59:08;22.80;85.50
28247;DHT22;34504;53.178;22.058;2022-08-14T06:01:37;22.80;85.30
28247;DHT22;34504;53.178;22.058;2022-08-14T06:04:09;22.90;85.10
28247;DHT22;34504;53.178;22.058;2022-08-14T06:06:38;23.00;85.10
28247;DHT22;34504;53.178;22.058;2022-08-14T06:09:07;23.00;85.20
28247;DHT22;34504;53.178;22.058;2022-08-14T06:11:37;23.10;84.70
28247;DHT22;34504;53.178;22.058;2022-08-14T06:14:05;23.20;84.40
28247;DHT22;34504;53.178;22.058;2022-08-14T06:16:50;23.10;84.30
28247;DHT22;34504;53.178;22.058;2022-08-14T06:19:20;23.20;84.60
28247;DHT22;34504;53.178;22.058;2022-08-14T06:21:50;23.20;84.40
28247;DHT22;34504;53.178;22.058;2022-08-14T06:24:27;23.20;84.10
28247;DHT22;34504;53.178;22.058;2022-08-14T06:27:02;23.30;84.30
28247;DHT22;34504;53.178;22.058;2022-08-14T06:29:39;23.30;84.10
28247;DHT22;34504;53.178;22.058;2022-08-14T06:32:07;23.40;84.00
28247;DHT22;34504;53.178;22.058;2022-08-14T06:34:56;23.30;84.30
28247;DHT22;34504;53.178;22.058;2022-08-14T06:37:43;23.40;84.90
28247;DHT22;34504;53.178;22.058;2022-08-14T06:40:19;23.40;84.60
28247;DHT22;34504;53.178;22.058;2022-08-14T06:42:59;23.40;84.20
28247;DHT22;34504;53.178;22.058;2022-08-14T06:45:31;23.40;84.40
28247;DHT22;34504;53.178;22.058;2022-08-14T06:48:05;23.50;84.40
28247;DHT22;34504;53.178;22.058;2022-08-14T06:50:45;23.50;84.40
28247;DHT22;34504;53.178;22.058;2022-08-14T06:53:13;23.60;83.90
28247;DHT22;34504;53.178;22.058;2022-08-14T06:55:45;23.60;83.90
28247;DHT22;34504;53.178;22.058;2022-08-14T06:58:25;23.60;83.90
28247;DHT22;34504;53.178;22.058;2022-08-14T07:00:58;23.70;84.00
28247;DHT22;34504;53.178;22.058;2022-08-14T07:03:55;23.80;84.20
28247;DHT22;34504;53.178;22.058;2022-08-14T07:06:52;23.90;83.60
28247;DHT22;34504;53.178;22.058;2022-08-14T07:09:24;23.90;83.00
28247;DHT22;34504;53.178;22.058;2022-08-14T07:11:54;23.90;83.60
28247;DHT22;34504;53.178;22.058;2022-08-14T07:14:26;24.00;83.50
28247;DHT22;34504;53.178;22.058;2022-08-14T07:16:54;24.00;83.80
28247;DHT22;34504;53.178;22.058;2022-08-14T07:19:22;24.20;83.70
28247;DHT22;34504;53.178;22.058;2022-08-14T07:21:51;24.30;82.80
28247;DHT22;34504;53.178;22.058;2022-08-14T07:24:19;24.30;83.00
28247;DHT22;34504;53.178;22.058;2022-08-14T07:26:55;24.30;83.20
28247;DHT22;34504;53.178;22.058;2022-08-14T07:29:23;24.30;83.40
28247;DHT22;34504;53.178;22.058;2022-08-14T07:31:55;24.30;83.70
28247;DHT22;34504;53.178;22.058;2022-08-14T07:34:26;24.30;83.60
28247;DHT22;34504;53.178;22.058;2022-08-14T07:37:07;24.40;82.90
28247;DHT22;34504;53.178;22.058;2022-08-14T07:39:38;24.40;82.90
28247;DHT22;34504;53.178;22.058;2022-08-14T07:42:10;24.40;82.70
28247;DHT22;34504;53.178;22.058;2022-08-14T07:44:44;24.50;83.40
28247;DHT22;34504;53.178;22.058;2022-08-14T07:47:17;24.50;82.20
28247;DHT22;34504;53.178;22.058;2022-08-14T07:50:03;24.50;83.10
28247;DHT22;34504;53.178;22.058;2022-08-14T07:52:33;24.60;82.80
28247;DHT22;34504;53.178;22.058;2022-08-14T07:55:05;24.60;82.80
28247;DHT22;34504;53.178;22.058;2022-08-14T07:57:35;24.60;82.10
28247;DHT22;34504;53.178;22.058;2022-08-14T08:00:09;24.70;82.30
28247;DHT22;34504;53.178;22.058;2022-08-14T08:03:00;24.80;81.40
28247;DHT22;34504;53.178;22.058;2022-08-14T08:05:30;24.90;80.70
28247;DHT22;34504;53.178;22.058;2022-08-14T08:08:01;24.90;80.80
28247;DHT22;34504;53.178;22.058;2022-08-14T08:10:35;25.00;80.80
28247;DHT22;34504;53.178;22.058;2022-08-14T08:13:28;25.00;80.60
28247;DHT22;34504;53.178;22.058;2022-08-14T08:16:00;25.10;80.70
28247;DHT22;34504;53.178;22.058;2022-08-14T08:18:32;25.10;80.30
28247;DHT22;34504;53.178;22.058;2022-08-14T08:21:02;25.20;80.60
28247;DHT22;34504;53.178;22.058;2022-08-14T08:23:35;25.20;80.70
28247;DHT22;34504;53.178;22.058;2022-08-14T08:26:17;25.10;80.70
28247;DHT22;34504;53.178;22.058;2022-08-14T08:28:57;25.10;81.00
28247;DHT22;34504;53.178;22.058;2022-08-14T08:31:26;25.20;81.00
28247;DHT22;34504;53.178;22.058;2022-08-14T08:34:04;25.30;81.30
28247;DHT22;34504;53.178;22.058;2022-08-14T08:36:41;25.40;81.20
28247;DHT22;34504;53.178;22.058;2022-08-14T08:39:13;25.50;81.00
28247;DHT22;34504;53.178;22.058;2022-08-14T08:41:49;25.50;81.00
28247;DHT22;34504;53.178;22.058;2022-08-14T08:44:27;25.60;80.50
28247;DHT22;34504;53.178;22.058;2022-08-14T08:47:01;25.80;80.50
28247;DHT22;34504;53.178;22.058;2022-08-14T08:49:41;25.80;80.50
28247;DHT22;34504;53.178;22.058;2022-08-14T08:52:29;25.80;80.30
28247;DHT22;34504;53.178;22.058;2022-08-14T08:54:59;25.90;80.70
28247;DHT22;34504;53.178;22.058;2022-08-14T08:57:35;26.00;80.60
28247;DHT22;34504;53.178;22.058;2022-08-14T09:00:16;25.90;79.70
28247;DHT22;34504;53.178;22.058;2022-08-14T09:02:54;25.90;80.40
28247;DHT22;34504;53.178;22.058;2022-08-14T09:05:25;25.90;80.20
28247;DHT22;34504;53.178;22.058;2022-08-14T09:07:54;25.90;80.60
28247;DHT22;34504;53.178;22.058;2022-08-14T09:10:23;25.90;80.60
28247;DHT22;34504;53.178;22.058;2022-08-14T09:12:54;25.90;80.70
28247;DHT22;34504;53.178;22.058;2022-08-14T09:15:24;25.90;81.10
28247;DHT22;34504;53.178;22.058;2022-08-14T09:18:03;25.90;81.40
28247;DHT22;34504;53.178;22.058;2022-08-14T09:20:31;26.00;81.00
28247;DHT22;34504;53.178;22.058;2022-08-14T09:23:04;26.00;81.30
28247;DHT22;34504;53.178;22.058;2022-08-14T09:25:37;26.00;81.30
28247;DHT22;34504;53.178;22.058;2022-08-14T09:28:25;26.20;81.30
28247;DHT22;34504;53.178;22.058;2022-08-14T09:30:55;26.20;80.90
28247;DHT22;34504;53.178;22.058;2022-08-14T09:42:15;26.30;80.70
28247;DHT22;34504;53.178;22.058;2022-08-14T09:47:53;26.40;81.00
28247;DHT22;34504;53.178;22.058;2022-08-14T09:52:57;26.50;80.70
28247;DHT22;34504;53.178;22.058;2022-08-14T09:55:31;26.60;80.80
28247;DHT22;34504;53.178;22.058;2022-08-14T09:58:12;26.60;80.70
28247;DHT22;34504;53.178;22.058;2022-08-14T10:00:50;26.70;80.70
28247;DHT22;34504;53.178;22.058;2022-08-14T10:03:28;26.70;80.50
28247;DHT22;34504;53.178;22.058;2022-08-14T10:06:12;26.70;80.50
28247;DHT22;34504;53.178;22.058;2022-08-14T10:08:58;26.80;80.50
28247;DHT22;34504;53.178;22.058;2022-08-14T10:11:35;26.80;80.00
28247;DHT22;34504;53.178;22.058;2022-08-14T10:14:21;26.90;80.10
28247;DHT22;34504;53.178;22.058;2022-08-14T10:17:04;26.90;80.10
28247;DHT22;34504;53.178;22.058;2022-08-14T10:19:46;26.90;79.90
28247;DHT22;34504;53.178;22.058;2022-08-14T10:22:15;26.90;80.20
28247;DHT22;34504;53.178;22.058;2022-08-14T10:25:13;26.90;80.20
28247;DHT22;34504;53.178;22.058;2022-08-14T10:27:43;27.00;80.30
28247;DHT22;34504;53.178;22.058;2022-08-14T10:30:32;27.10;79.80
28247;DHT22;34504;53.178;22.058;2022-08-14T10:33:08;27.30;79.20
28247;DHT22;34504;53.178;22.058;2022-08-14T10:35:43;27.30;78.30
28247;DHT22;34504;53.178;22.058;2022-08-14T10:38:25;27.30;78.00
28247;DHT22;34504;53.178;22.058;2022-08-14T10:40:54;27.30;78.40
28247;DHT22;34504;53.178;22.058;2022-08-14T10:43:28;27.40;78.10
28247;DHT22;34504;53.178;22.058;2022-08-14T10:45:59;27.40;78.10
28247;DHT22;34504;53.178;22.058;2022-08-14T10:48:59;27.50;78.10
28247;DHT22;34504;53.178;22.058;2022-08-14T10:51:32;27.50;77.80
28247;DHT22;34504;53.178;22.058;2022-08-14T10:54:09;27.60;77.50
28247;DHT22;34504;53.178;22.058;2022-08-14T11:03:09;27.90;76.10
28247;DHT22;34504;53.178;22.058;2022-08-14T11:05:53;28.00;76.80
28247;DHT22;34504;53.178;22.058;2022-08-14T11:08:30;28.20;76.20
28247;DHT22;34504;53.178;22.058;2022-08-14T11:11:02;28.30;74.90
28247;DHT22;34504;53.178;22.058;2022-08-14T11:13:33;28.30;74.80
28247;DHT22;34504;53.178;22.058;2022-08-14T11:16:01;28.40;74.90
28247;DHT22;34504;53.178;22.058;2022-08-14T11:18:36;28.40;74.00
28247;DHT22;34504;53.178;22.058;2022-08-14T11:21:08;28.50;73.90
28247;DHT22;34504;53.178;22.058;2022-08-14T11:23:38;28.60;74.10
28247;DHT22;34504;53.178;22.058;2022-08-14T11:26:13;28.70;73.90
28247;DHT22;34504;53.178;22.058;2022-08-14T11:28:48;28.80;73.40
28247;DHT22;34504;53.178;22.058;2022-08-14T11:31:20;28.70;73.30
28247;DHT22;34504;53.178;22.058;2022-08-14T11:33:54;28.80;73.50
28247;DHT22;34504;53.178;22.058;2022-08-14T11:36:28;28.80;73.80
28247;DHT22;34504;53.178;22.058;2022-08-14T11:39:21;28.80;73.60
28247;DHT22;34504;53.178;22.058;2022-08-14T11:42:19;28.80;73.50
28247;DHT22;34504;53.178;22.058;2022-08-14T11:45:08;28.80;73.70
28247;DHT22;34504;53.178;22.058;2022-08-14T11:47:38;28.70;73.50
28247;DHT22;34504;53.178;22.058;2022-08-14T11:50:32;28.70;73.30
28247;DHT22;34504;53.178;22.058;2022-08-14T11:53:06;28.70;73.50
28247;DHT22;34504;53.178;22.058;2022-08-14T11:55:39;28.70;73.50
28247;DHT22;34504;53.178;22.058;2022-08-14T11:58:10;28.80;72.50
28247;DHT22;34504;53.178;22.058;2022-08-14T12:00:56;28.80;72.60
28247;DHT22;34504;53.178;22.058;2022-08-14T12:06:19;28.80;72.80
28247;DHT22;34504;53.178;22.058;2022-08-14T12:09:06;28.80;73.00
28247;DHT22;34504;53.178;22.058;2022-08-14T12:11:43;28.80;73.40
28247;DHT22;34504;53.178;22.058;2022-08-14T12:14:18;28.80;73.10
28247;DHT22;34504;53.178;22.058;2022-08-14T12:17:04;28.80;73.30
28247;DHT22;34504;53.178;22.058;2022-08-14T12:19:48;28.80;73.30
28247;DHT22;34504;53.178;22.058;2022-08-14T12:22:43;28.80;73.20
28247;DHT22;34504;53.178;22.058;2022-08-14T12:25:21;28.80;73.30
28247;DHT22;34504;53.178;22.058;2022-08-14T12:27:53;28.80;73.20
28247;DHT22;34504;53.178;22.058;2022-08-14T12:36:06;29.00;72.90
28247;DHT22;34504;53.178;22.058;2022-08-14T12:38:42;29.00;71.20
28247;DHT22;34504;53.178;22.058;2022-08-14T12:41:18;29.00;71.30
28247;DHT22;34504;53.178;22.058;2022-08-14T12:43:52;29.10;71.80
28247;DHT22;34504;53.178;22.058;2022-08-14T12:49:01;29.30;71.00
28247;DHT22;34504;53.178;22.058;2022-08-14T12:51:32;29.30;70.40
28247;DHT22;34504;53.178;22.058;2022-08-14T12:54:15;29.30;70.50
28247;DHT22;34504;53.178;22.058;2022-08-14T12:57:11;29.40;70.20
28247;DHT22;34504;53.178;22.058;2022-08-14T12:59:47;29.40;69.90
28247;DHT22;34504;53.178;22.058;2022-08-14T13:02:21;29.40;69.70
28247;DHT22;34504;53.178;22.058;2022-08-14T13:04:54;29.40;69.00
28247;DHT22;34504;53.178;22.058;2022-08-14T13:07:27;29.40;69.10
28247;DHT22;34504;53.178;22.058;2022-08-14T13:10:00;29.50;68.40
28247;DHT22;34504;53.178;22.058;2022-08-14T13:12:56;29.50;68.60
28247;DHT22;34504;53.178;22.058;2022-08-14T13:15:44;29.60;67.80
28247;DHT22;34504;53.178;22.058;2022-08-14T13:18:14;29.60;67.00
28247;DHT22;34504;53.178;22.058;2022-08-14T13:20:43;29.60;67.10
28247;DHT22;34504;53.178;22.058;2022-08-14T13:23:25;29.50;66.20
28247;DHT22;34504;53.178;22.058;2022-08-14T13:25:59;29.60;66.40
28247;DHT22;34504;53.178;22.058;2022-08-14T13:28:30;29.60;65.90
28247;DHT22;34504;53.178;22.058;2022-08-14T13:31:25;29.70;64.60
28247;DHT22;34504;53.178;22.058;2022-08-14T13:33:57;29.80;63.70
28247;DHT22;34504;53.178;22.058;2022-08-14T13:36:28;29.90;63.50
28247;DHT22;34504;53.178;22.058;2022-08-14T13:39:19;29.90;62.90
28247;DHT22;34504;53.178;22.058;2022-08-14T13:41:48;29.90;63.50
28247;DHT22;34504;53.178;22.058;2022-08-14T13:44:25;29.90;63.10
28247;DHT22;34504;53.178;22.058;2022-08-14T13:46:54;29.80;62.20
28247;DHT22;34504;53.178;22.058;2022-08-14T13:49:23;29.80;62.10
28247;DHT22;34504;53.178;22.058;2022-08-14T13:51:57;29.70;62.80
28247;DHT22;34504;53.178;22.058;2022-08-14T13:54:28;29.80;61.60
28247;DHT22;34504;53.178;22.058;2022-08-14T13:56:59;29.70;61.70
28247;DHT22;34504;53.178;22.058;2022-08-14T13:59:33;29.70;61.00
28247;DHT22;34504;53.178;22.058;2022-08-14T14:02:06;29.70;60.90
28247;DHT22;34504;53.178;22.058;2022-08-14T14:04:43;29.70;61.30
28247;DHT22;34504;53.178;22.058;2022-08-14T14:07:20;29.70;60.40
28247;DHT22;34504;53.178;22.058;2022-08-14T14:09:53;29.60;59.50
28247;DHT22;34504;53.178;22.058;2022-08-14T14:12:23;29.50;60.20
28247;DHT22;34504;53.178;22.058;2022-08-14T14:15:10;29.40;60.40
28247;DHT22;34504;53.178;22.058;2022-08-14T14:17:42;29.40;60.40
28247;DHT22;34504;53.178;22.058;2022-08-14T14:20:14;29.40;60.50
28247;DHT22;34504;53.178;22.058;2022-08-14T14:23:03;29.30;59.50
28247;DHT22;34504;53.178;22.058;2022-08-14T14:25:41;29.30;59.70
28247;DHT22;34504;53.178;22.058;2022-08-14T14:28:30;29.20;59.50
28247;DHT22;34504;53.178;22.058;2022-08-14T14:31:01;29.20;58.50
28247;DHT22;34504;53.178;22.058;2022-08-14T14:33:35;29.20;57.40
28247;DHT22;34504;53.178;22.058;2022-08-14T14:36:25;29.20;55.50
28247;DHT22;34504;53.178;22.058;2022-08-14T14:38:59;29.10;53.30
28247;DHT22;34504;53.178;22.058;2022-08-14T14:41:32;29.10;53.70
28247;DHT22;34504;53.178;22.058;2022-08-14T14:44:07;29.10;51.80
28247;DHT22;34504;53.178;22.058;2022-08-14T14:46:41;29.10;52.70
28247;DHT22;34504;53.178;22.058;2022-08-14T14:49:35;29.10;52.80
28247;DHT22;34504;53.178;22.058;2022-08-14T14:52:24;29.00;52.80
28247;DHT22;34504;53.178;22.058;2022-08-14T14:55:09;29.00;52.20
28247;DHT22;34504;53.178;22.058;2022-08-14T14:57:52;29.00;51.30
28247;DHT22;34504;53.178;22.058;2022-08-14T15:00:36;29.00;51.60
28247;DHT22;34504;53.178;22.058;2022-08-14T15:03:48;29.00;52.40
28247;DHT22;34504;53.178;22.058;2022-08-14T15:06:42;28.90;52.60
28247;DHT22;34504;53.178;22.058;2022-08-14T15:09:31;28.90;52.60
28247;DHT22;34504;53.178;22.058;2022-08-14T15:12:20;28.90;51.90
28247;DHT22;34504;53.178;22.058;2022-08-14T15:15:14;28.90;52.60
28247;DHT22;34504;53.178;22.058;2022-08-14T15:17:47;28.80;53.40
28247;DHT22;34504;53.178;22.058;2022-08-14T15:20:29;28.80;53.40
28247;DHT22;34504;53.178;22.058;2022-08-14T15:23:24;28.80;53.80
28247;DHT22;34504;53.178;22.058;2022-08-14T15:26:18;28.80;54.20
28247;DHT22;34504;53.178;22.058;2022-08-14T15:29:05;28.70;53.40
28247;DHT22;34504;53.178;22.058;2022-08-14T15:31:36;28.70;50.90
28247;DHT22;34504;53.178;22.058;2022-08-14T15:34:09;28.70;50.50
28247;DHT22;34504;53.178;22.058;2022-08-14T15:37:19;28.60;50.30
28247;DHT22;34504;53.178;22.058;2022-08-14T15:40:08;28.60;49.20
28247;DHT22;34504;53.178;22.058;2022-08-14T15:43:10;28.60;49.10
28247;DHT22;34504;53.178;22.058;2022-08-14T15:46:26;28.50;48.80
28247;DHT22;34504;53.178;22.058;2022-08-14T15:49:29;28.50;49.50
28247;DHT22;34504;53.178;22.058;2022-08-14T15:52:21;28.50;49.60
28247;DHT22;34504;53.178;22.058;2022-08-14T15:55:17;28.40;49.80
28247;DHT22;34504;53.178;22.058;2022-08-14T15:58:07;28.40;50.20
28247;DHT22;34504;53.178;22.058;2022-08-14T16:00:53;28.40;50.10
28247;DHT22;34504;53.178;22.058;2022-08-14T16:04:21;28.30;50.00
28247;DHT22;34504;53.178;22.058;2022-08-14T16:07:07;28.20;50.10
28247;DHT22;34504;53.178;22.058;2022-08-14T16:09:45;28.20;50.40
28247;DHT22;34504;53.178;22.058;2022-08-14T16:12:41;28.20;50.90
28247;DHT22;34504;53.178;22.058;2022-08-14T16:15:17;28.10;51.30
28247;DHT22;34504;53.178;22.058;2022-08-14T16:18:12;28.10;51.60
28247;DHT22;34504;53.178;22.058;2022-08-14T16:20:51;28.00;51.90
28247;DHT22;34504;53.178;22.058;2022-08-14T16:23:29;28.00;52.40
28247;DHT22;34504;53.178;22.058;2022-08-14T16:26:10;28.00;52.90
28247;DHT22;34504;53.178;22.058;2022-08-14T16:29:01;28.00;53.50
28247;DHT22;34504;53.178;22.058;2022-08-14T16:32:07;27.90;54.30
28247;DHT22;34504;53.178;22.058;2022-08-14T16:34:57;27.90;55.20
28247;DHT22;34504;53.178;22.058;2022-08-14T16:37:42;27.90;55.80
28247;DHT22;34504;53.178;22.058;2022-08-14T16:40:28;27.80;56.60
28247;DHT22;34504;53.178;22.058;2022-08-14T16:43:15;27.80;57.10
28247;DHT22;34504;53.178;22.058;2022-08-14T16:45:48;27.70;57.40
28247;DHT22;34504;53.178;22.058;2022-08-14T16:48:27;27.70;57.80
28247;DHT22;34504;53.178;22.058;2022-08-14T16:51:18;27.70;58.30
28247;DHT22;34504;53.178;22.058;2022-08-14T16:53:48;27.60;58.40
28247;DHT22;34504;53.178;22.058;2022-08-14T16:56:24;27.60;58.80